createdAt,value
2022-10-11T00:03:00.123Z,80.58
2022-10-11T00:06:05.832Z,79.48
2022-10-11T00:09:13.884Z,78.45
2022-10-11T00:12:17.001Z,78.29
2022-10-11T00:15:21.682Z,80.10
2022-10-11T00:18:24.995Z,79.73
2022-10-11T00:21:27.884Z,81.02
2022-10-11T00:24:31.046Z,81.73
2022-10-11T00:27:34.722Z,81.63
2022-10-11T00:30:37.684Z,81.89
2022-10-11T00:33:40.594Z,83.15
2022-10-11T00:36:45.226Z,83.73
2022-10-11T00:39:47.960Z,83.38
2022-10-11T00:42:51.701Z,83.33
2022-10-11T00:45:58.214Z,83.59
2022-10-11T00:49:27.465Z,83.95
2022-10-11T00:52:35.178Z,84.27
2022-10-11T00:55:42.917Z,83.94
2022-10-11T00:58:45.831Z,84.59
2022-10-11T01:01:49.578Z,84.25
2022-10-11T01:05:11.410Z,83.37
2022-10-11T01:08:16.680Z,84.09
2022-10-11T01:11:23.256Z,83.98
2022-10-11T01:14:51.019Z,84.30
2022-10-11T01:18:22.000Z,85.47
2022-10-11T01:21:39.336Z,84.68
2022-10-11T01:24:42.047Z,84.08
2022-10-11T01:28:01.923Z,85.45
2022-10-11T01:31:15.830Z,83.83
2022-10-11T01:34:19.065Z,83.22
2022-10-11T01:37:30.295Z,84.29
2022-10-11T01:40:47.109Z,85.29
2022-10-11T01:43:52.501Z,84.53
2022-10-11T01:46:55.777Z,83.86
2022-10-11T01:50:01.144Z,83.07
2022-10-11T01:53:23.007Z,83.04
2022-10-11T01:56:34.153Z,83.10
2022-10-11T02:00:09.150Z,82.41
2022-10-11T02:03:59.505Z,83.26
2022-10-11T02:07:17.347Z,83.23
2022-10-11T02:10:28.971Z,81.85
2022-10-11T02:13:38.213Z,81.41
2022-10-11T02:16:45.832Z,82.23
2022-10-11T02:19:53.022Z,80.89
2022-10-11T02:23:20.775Z,79.97
2022-10-11T02:26:28.025Z,80.81
2022-10-11T02:29:36.101Z,82.75
2022-10-11T02:32:42.299Z,83.60
2022-10-11T02:35:49.740Z,83.35
2022-10-11T02:38:59.728Z,84.06
2022-10-11T02:42:06.845Z,84.92
2022-10-11T02:45:25.455Z,85.54
2022-10-11T02:48:29.660Z,85.69
2022-10-11T02:51:33.863Z,85.14
2022-10-11T02:54:37.254Z,85.02
2022-10-11T02:57:40.129Z,85.19
2022-10-11T03:00:43.758Z,86.42
2022-10-11T03:03:46.895Z,86.81
2022-10-11T03:06:49.711Z,86.42
2022-10-11T03:09:52.791Z,85.35
2022-10-11T03:12:55.397Z,86.15
2022-10-11T03:16:07.203Z,87.05
2022-10-11T03:19:10.342Z,86.06
2022-10-11T03:22:13.454Z,86.50
2022-10-11T03:25:16.938Z,88.00
2022-10-11T03:28:20.454Z,86.84
2022-10-11T03:31:23.950Z,86.63
2022-10-11T03:34:27.055Z,87.07
2022-10-11T03:37:29.791Z,87.97
2022-10-11T03:40:32.772Z,86.35
2022-10-11T03:43:36.133Z,86.22
2022-10-11T03:46:39.294Z,86.59
2022-10-11T03:49:43.795Z,85.96
2022-10-11T03:52:46.952Z,86.46
2022-10-11T03:55:54.364Z,86.38
2022-10-11T03:58:57.521Z,88.17
2022-10-11T04:02:00.495Z,88.19
2022-10-11T04:05:05.958Z,87.82
2022-10-11T04:08:12.156Z,86.89
2022-10-11T04:11:15.982Z,87.82
2022-10-11T04:14:19.003Z,86.54
2022-10-11T04:17:22.295Z,85.70
2022-10-11T04:20:25.039Z,86.41
2022-10-11T04:23:28.001Z,86.65
2022-10-11T04:26:30.719Z,86.35
2022-10-11T04:29:33.718Z,86.16
2022-10-11T04:32:37.052Z,85.60
2022-10-11T04:35:40.374Z,85.84
2022-10-11T04:38:43.178Z,86.23
2022-10-11T04:41:46.437Z,85.20
2022-10-11T04:44:49.224Z,84.38
2022-10-11T04:47:52.283Z,84.19
2022-10-11T04:50:58.662Z,84.85
2022-10-11T04:54:01.485Z,85.99
2022-10-11T04:57:04.259Z,84.74
2022-10-11T05:00:07.707Z,83.69
2022-10-11T05:03:10.352Z,83.99
2022-10-11T05:06:13.792Z,84.94
2022-10-11T05:09:16.911Z,86.83
2022-10-11T05:12:20.063Z,87.39
2022-10-11T05:15:22.588Z,86.27
2022-10-11T05:18:25.919Z,85.88
2022-10-11T05:21:29.994Z,85.82
2022-10-11T05:24:33.108Z,86.23
2022-10-11T05:27:35.691Z,83.56
2022-10-11T05:30:38.713Z,83.94
2022-10-11T05:33:41.467Z,83.85
2022-10-11T05:36:47.202Z,83.58
2022-10-11T05:39:49.813Z,81.49
2022-10-11T05:42:52.664Z,82.52
2022-10-11T05:45:55.295Z,82.21
2022-10-11T05:48:58.158Z,81.40
2022-10-11T05:52:00.673Z,81.66
2022-10-11T05:55:03.823Z,83.28
2022-10-11T05:58:07.408Z,82.61
2022-10-11T06:01:20.644Z,80.50
2022-10-11T06:04:23.491Z,79.96
2022-10-11T06:07:26.468Z,79.88
2022-10-11T06:10:29.275Z,79.88
2022-10-11T06:13:32.255Z,79.88
2022-10-11T06:16:35.083Z,78.95
2022-10-11T06:19:37.557Z,78.59
2022-10-11T06:22:40.357Z,78.77
2022-10-11T06:25:42.814Z,77.30
2022-10-11T06:28:46.054Z,77.51
2022-10-11T06:31:48.998Z,77.14
2022-10-11T06:34:51.803Z,77.08
2022-10-11T06:37:54.655Z,77.15
2022-10-11T06:40:57.561Z,76.17
2022-10-11T06:44:00.353Z,73.14
2022-10-11T06:47:03.550Z,71.43
2022-10-11T06:50:06.449Z,70.16
2022-10-11T06:53:09.789Z,69.64
2022-10-11T06:56:13.432Z,70.31
2022-10-11T06:59:16.318Z,70.12
2022-10-11T07:02:19.075Z,69.06
2022-10-11T07:05:22.066Z,68.06
2022-10-11T07:08:27.646Z,65.22
2022-10-11T07:11:30.815Z,61.89
2022-10-11T07:14:33.367Z,59.97
2022-10-11T07:17:36.255Z,60.04
2022-10-11T07:20:38.837Z,60.17
2022-10-11T07:23:43.345Z,59.28
2022-10-11T07:26:46.153Z,58.56
2022-10-11T07:29:49.281Z,59.43
2022-10-11T07:32:52.129Z,56.70
2022-10-11T07:35:57.800Z,58.38
2022-10-11T07:39:00.638Z,57.37
2022-10-11T07:42:03.719Z,57.88
2022-10-11T07:45:06.596Z,56.34
2022-10-11T07:48:09.634Z,57.29
2022-10-11T07:51:15.274Z,58.39
2022-10-11T07:54:18.120Z,56.11
2022-10-11T07:57:20.646Z,54.49
2022-10-11T08:00:24.275Z,53.90
2022-10-11T08:03:27.017Z,56.07
2022-10-11T08:06:32.772Z,55.73
2022-10-11T08:09:35.960Z,53.76
2022-10-11T08:12:38.882Z,52.47
2022-10-11T08:15:41.898Z,53.07
2022-10-11T08:18:44.919Z,55.36
2022-10-11T08:21:48.191Z,52.64
2022-10-11T08:24:50.984Z,52.64
2022-10-11T08:27:54.166Z,50.51
2022-10-11T08:30:56.991Z,53.23
2022-10-11T08:34:00.020Z,52.19
2022-10-11T08:37:02.543Z,50.97
2022-10-11T08:40:06.634Z,49.47
2022-10-11T08:43:24.936Z,50.23
2022-10-11T08:46:32.024Z,51.40
2022-10-11T08:49:35.033Z,48.26
2022-10-11T08:52:37.811Z,47.36
2022-10-11T08:55:51.345Z,47.19
2022-10-11T08:59:12.652Z,45.55
2022-10-11T09:03:03.397Z,48.56
2022-10-11T09:06:07.565Z,53.11
2022-10-11T09:09:46.075Z,54.35
2022-10-11T09:13:16.239Z,55.50
2022-10-11T09:16:36.917Z,55.59
2022-10-11T09:19:55.196Z,50.54
2022-10-11T09:23:00.778Z,46.50
2022-10-11T09:26:10.702Z,43.92
2022-10-11T09:29:28.987Z,46.72
2022-10-11T09:32:38.094Z,45.60
2022-10-11T09:35:45.406Z,45.62
2022-10-11T09:38:57.302Z,47.77
2022-10-11T09:42:08.802Z,47.22
2022-10-11T09:45:20.969Z,49.20
2022-10-11T09:48:28.447Z,48.79
2022-10-11T09:51:32.798Z,52.19
2022-10-11T09:54:44.499Z,47.54
2022-10-11T09:57:54.798Z,46.67
2022-10-11T10:01:09.575Z,40.85
2022-10-11T10:04:16.966Z,45.53
2022-10-11T10:07:20.267Z,43.76
2022-10-11T10:10:34.049Z,43.74
2022-10-11T10:13:42.234Z,42.71
2022-10-11T10:16:45.065Z,39.91
2022-10-11T10:19:51.803Z,41.54
2022-10-11T10:22:54.964Z,43.15
2022-10-11T10:26:30.753Z,40.70
2022-10-11T10:29:33.917Z,40.18
2022-10-11T10:32:52.199Z,41.50
2022-10-11T10:36:05.872Z,39.55
2022-10-11T10:39:16.301Z,38.79
2022-10-11T10:42:20.668Z,42.05
2022-10-11T10:45:30.049Z,43.74
2022-10-11T10:52:21.361Z,45.65
2022-10-11T10:55:44.504Z,39.04
2022-10-11T10:59:12.207Z,38.68
2022-10-11T11:02:40.305Z,39.10
2022-10-11T11:06:24.405Z,45.25
2022-10-11T11:09:41.664Z,45.32
2022-10-11T11:13:20.005Z,47.96
2022-10-11T11:16:26.002Z,46.26
2022-10-11T11:19:44.941Z,48.73
2022-10-11T11:23:08.194Z,47.71
2022-10-11T11:26:32.149Z,49.05
2022-10-11T11:30:02.530Z,46.72
2022-10-11T11:33:37.723Z,48.56
2022-10-11T11:36:57.997Z,47.86
2022-10-11T11:40:35.518Z,46.82
2022-10-11T11:43:51.877Z,46.75
2022-10-11T11:47:03.949Z,45.97
2022-10-11T11:50:15.133Z,45.90
2022-10-11T11:53:24.756Z,44.78
2022-10-11T11:56:27.773Z,42.52
2022-10-11T11:59:33.924Z,43.79
2022-10-11T12:02:57.501Z,46.90
2022-10-11T12:06:18.356Z,47.38
2022-10-11T12:09:23.078Z,44.03
2022-10-11T12:12:36.476Z,45.65
2022-10-11T12:15:39.187Z,45.86
2022-10-11T12:18:59.695Z,46.65
2022-10-11T12:22:37.775Z,48.83
2022-10-11T12:25:42.596Z,50.62
2022-10-11T12:29:04.485Z,50.80
2022-10-11T12:32:07.298Z,47.93
2022-10-11T12:35:36.599Z,49.27
2022-10-11T12:38:43.266Z,50.84
2022-10-11T12:41:49.855Z,50.74
2022-10-11T12:45:10.757Z,50.40
2022-10-11T12:48:41.042Z,48.94
2022-10-11T12:51:50.367Z,49.20
2022-10-11T12:54:52.829Z,50.83
2022-10-11T12:58:12.235Z,49.53
2022-10-11T13:01:23.336Z,51.75
2022-10-11T13:04:31.804Z,52.38
2022-10-11T13:07:35.730Z,51.79
2022-10-11T13:10:44.322Z,50.71
2022-10-11T13:13:56.483Z,51.53
2022-10-11T13:17:16.950Z,53.06
2022-10-11T13:20:25.227Z,52.08
2022-10-11T13:23:34.731Z,52.38
2022-10-11T13:26:38.051Z,52.60
2022-10-11T13:29:44.960Z,52.65
2022-10-11T13:32:47.814Z,52.09
2022-10-11T13:35:52.413Z,50.75
2022-10-11T13:39:00.439Z,52.91
2022-10-11T13:42:08.946Z,52.00
2022-10-11T13:45:15.133Z,51.48
2022-10-11T13:48:19.796Z,51.74
2022-10-11T13:51:38.377Z,52.24
2022-10-11T13:54:54.584Z,53.62
2022-10-11T13:57:59.325Z,53.30
2022-10-11T14:01:17.312Z,52.84
2022-10-11T14:04:20.502Z,51.88
2022-10-11T14:07:39.026Z,54.09
2022-10-11T14:10:51.736Z,54.20
2022-10-11T14:13:58.717Z,54.83
2022-10-11T14:17:10.992Z,54.66
2022-10-11T14:20:33.752Z,55.80
2022-10-11T14:23:36.578Z,56.03
2022-10-11T14:27:06.110Z,55.02
2022-10-11T14:30:25.470Z,54.76
2022-10-11T14:33:28.901Z,55.70
2022-10-11T14:36:34.767Z,55.41
2022-10-11T14:39:37.828Z,55.05
2022-10-11T14:42:41.897Z,55.50
2022-10-11T14:45:44.722Z,55.91
2022-10-11T14:48:55.331Z,55.71
2022-10-11T14:51:59.193Z,56.76
2022-10-11T14:55:02.275Z,55.83
2022-10-11T14:58:09.612Z,55.05
2022-10-11T15:01:15.757Z,55.41
2022-10-11T15:04:22.805Z,55.28
2022-10-11T15:07:25.641Z,54.91
2022-10-11T15:10:36.487Z,55.48
2022-10-11T15:13:39.395Z,56.27
2022-10-11T15:16:42.319Z,56.23
2022-10-11T15:19:45.690Z,56.34
2022-10-11T15:22:48.689Z,56.92
2022-10-11T15:26:07.104Z,56.97
2022-10-11T15:29:14.236Z,58.51
2022-10-11T15:32:17.168Z,58.09
2022-10-11T15:35:21.377Z,59.20
2022-10-11T15:38:25.787Z,59.60
2022-10-11T15:41:33.904Z,61.00
2022-10-11T15:44:36.717Z,61.04
2022-10-11T15:47:39.687Z,60.62
2022-10-11T15:50:43.219Z,60.76
2022-10-11T15:53:46.321Z,60.77
2022-10-11T15:56:49.195Z,61.11
2022-10-11T15:59:51.874Z,61.00
2022-10-11T16:02:56.647Z,61.25
2022-10-11T16:06:04.913Z,61.60
2022-10-11T16:09:08.607Z,61.89
2022-10-11T16:12:11.533Z,61.96
2022-10-11T16:15:17.409Z,61.41
2022-10-11T16:18:22.510Z,61.85
2022-10-11T16:21:25.123Z,62.13
2022-10-11T16:24:28.022Z,61.95
2022-10-11T16:27:31.419Z,62.45
2022-10-11T16:30:38.744Z,62.76
2022-10-11T16:33:47.740Z,63.22
2022-10-11T16:36:50.687Z,64.06
2022-10-11T16:39:53.380Z,64.06
2022-10-11T16:42:56.344Z,64.30
2022-10-11T16:45:58.906Z,65.13
2022-10-11T16:49:01.891Z,65.32
2022-10-11T16:52:04.704Z,65.31
2022-10-11T16:55:08.540Z,65.30
2022-10-11T16:58:11.251Z,65.62
2022-10-11T17:01:14.300Z,67.20
2022-10-11T17:04:17.109Z,67.11
2022-10-11T17:07:21.967Z,67.20
2022-10-11T17:10:39.285Z,68.41
2022-10-11T17:13:45.554Z,67.74
2022-10-11T17:16:48.258Z,68.25
2022-10-11T17:19:51.395Z,69.49
2022-10-11T17:22:55.199Z,69.27
2022-10-11T17:25:58.058Z,69.87
2022-10-11T17:29:02.266Z,69.54
2022-10-11T17:32:05.769Z,69.35
2022-10-11T17:35:09.336Z,69.48
2022-10-11T17:38:12.331Z,69.74
2022-10-11T17:41:15.434Z,70.26
2022-10-11T17:44:18.623Z,70.87
2022-10-11T17:47:21.238Z,70.86
2022-10-11T17:50:24.060Z,71.31
2022-10-11T17:53:26.908Z,70.61
2022-10-11T17:56:35.099Z,70.56
2022-10-11T17:59:40.314Z,70.71
2022-10-11T18:02:43.188Z,71.36
2022-10-11T18:05:46.030Z,71.47
2022-10-11T18:08:48.757Z,72.71
2022-10-11T18:11:52.045Z,72.47
2022-10-11T18:14:56.571Z,72.50
2022-10-11T18:17:59.871Z,73.21
2022-10-11T18:21:06.208Z,75.15
2022-10-11T18:24:16.430Z,75.76
2022-10-11T18:27:18.972Z,75.94
2022-10-11T18:30:22.294Z,75.20
2022-10-11T18:33:28.260Z,74.26
2022-10-11T18:36:35.559Z,77.91
2022-10-11T18:39:38.327Z,76.21
2022-10-11T18:42:44.544Z,79.79
2022-10-11T18:45:47.801Z,80.23
2022-10-11T18:48:56.238Z,81.18
2022-10-11T18:51:59.050Z,80.47
2022-10-11T18:55:05.514Z,80.41
2022-10-11T18:58:08.256Z,79.36
2022-10-11T19:01:17.318Z,79.40
2022-10-11T19:04:20.253Z,82.91
2022-10-11T19:07:26.573Z,83.28
2022-10-11T19:11:06.531Z,82.96
2022-10-11T19:14:16.551Z,83.02
2022-10-11T19:17:22.710Z,83.25
2022-10-11T19:20:25.599Z,83.43
2022-10-11T19:23:32.884Z,82.70
2022-10-11T19:26:38.138Z,81.40
2022-10-11T19:29:40.758Z,80.60
2022-10-11T19:32:43.785Z,79.34
2022-10-11T19:35:56.612Z,78.13
2022-10-11T19:39:00.091Z,78.51
2022-10-11T19:42:04.874Z,77.80
2022-10-11T19:45:08.882Z,77.38
2022-10-11T19:48:11.957Z,77.14
2022-10-11T19:51:22.637Z,78.60
2022-10-11T19:54:25.493Z,79.68
2022-10-11T19:57:28.360Z,81.18
2022-10-11T20:00:31.630Z,81.19
2022-10-11T20:03:34.884Z,81.19
2022-10-11T20:06:41.241Z,81.00
2022-10-11T20:09:44.210Z,80.95
2022-10-11T20:12:46.978Z,81.12
2022-10-11T20:15:50.013Z,80.50
2022-10-11T20:18:54.755Z,80.23
2022-10-11T20:21:57.645Z,80.08
2022-10-11T20:25:00.742Z,79.76
2022-10-11T20:28:03.797Z,78.78
2022-10-11T20:31:33.331Z,78.37
2022-10-11T20:34:39.453Z,79.14
2022-10-11T20:37:42.080Z,78.84
2022-10-11T20:40:45.352Z,78.58
2022-10-11T20:43:50.137Z,78.54
2022-10-11T20:46:54.501Z,77.73
2022-10-11T20:49:57.133Z,77.64
2022-10-11T20:53:00.158Z,77.71
2022-10-11T20:56:02.858Z,77.25
2022-10-11T20:59:07.589Z,82.00
2022-10-11T21:02:13.415Z,84.21
2022-10-11T21:05:19.502Z,83.42
2022-10-11T21:08:23.273Z,83.43
2022-10-11T21:11:31.885Z,83.09
2022-10-11T21:14:34.452Z,85.45
2022-10-11T21:17:37.266Z,86.29
2022-10-11T21:20:41.394Z,86.32
2022-10-11T21:23:44.325Z,86.93
2022-10-11T21:26:47.800Z,87.07
2022-10-11T21:29:51.805Z,88.26
2022-10-11T21:32:57.599Z,88.80
2022-10-11T21:36:07.527Z,89.50
2022-10-11T21:39:10.112Z,89.25
2022-10-11T21:42:12.943Z,89.57
2022-10-11T21:45:15.442Z,89.20
2022-10-11T21:48:18.295Z,89.64
2022-10-11T21:51:26.968Z,90.21
2022-10-11T21:54:29.715Z,89.87
2022-10-11T21:57:32.399Z,89.32
2022-10-11T22:00:35.541Z,89.58
2022-10-11T22:03:38.419Z,90.96
2022-10-11T22:06:40.953Z,91.60
2022-10-11T22:09:43.818Z,93.44
2022-10-11T22:12:46.937Z,93.15
2022-10-11T22:15:50.200Z,94.28
2022-10-11T22:18:56.086Z,94.87
2022-10-11T22:21:58.906Z,95.05
2022-10-11T22:25:01.769Z,94.15
2022-10-11T22:28:05.038Z,94.75
2022-10-11T22:31:09.483Z,95.12
2022-10-11T22:34:12.660Z,96.22
2022-10-11T22:37:15.136Z,95.61
2022-10-11T22:40:19.110Z,95.32
2022-10-11T22:43:22.000Z,94.81
2022-10-11T22:46:24.843Z,94.74
2022-10-11T22:49:27.277Z,95.11
2022-10-11T22:52:30.359Z,95.87
2022-10-11T22:55:33.370Z,96.75
2022-10-11T22:58:36.442Z,97.77
2022-10-11T23:01:39.010Z,97.48
2022-10-11T23:04:41.812Z,97.46
2022-10-11T23:07:46.572Z,98.40
2022-10-11T23:10:49.741Z,98.39
2022-10-11T23:13:52.455Z,98.64
2022-10-11T23:16:55.188Z,99.29
2022-10-11T23:19:58.015Z,99.25
2022-10-11T23:23:00.898Z,99.71
2022-10-11T23:26:16.021Z,100.00
2022-10-11T23:29:18.918Z,100.00
2022-10-11T23:32:21.580Z,100.00
2022-10-11T23:35:24.417Z,100.00
2022-10-11T23:38:26.943Z,100.00
2022-10-11T23:41:30.546Z,100.00
2022-10-11T23:44:33.520Z,100.00
2022-10-11T23:47:36.677Z,100.00
2022-10-11T23:50:39.759Z,100.00
2022-10-11T23:53:42.681Z,100.00
2022-10-11T23:56:45.189Z,100.00
2022-10-11T23:59:48.079Z,100.00
